createdAt,value
2018-06-16T00:02:12.180Z,31.10
2018-06-16T00:04:40.436Z,34.13
2018-06-16T00:07:08.717Z,29.73
2018-06-16T00:09:37.149Z,33.73
2018-06-16T00:12:05.414Z,45.10
2018-06-16T00:14:33.648Z,25.90
2018-06-16T00:17:01.900Z,32.67
2018-06-16T00:19:30.180Z,33.77
2018-06-16T00:21:58.410Z,28.43
2018-06-16T00:24:26.719Z,31.50
2018-06-16T00:26:54.903Z,30.73
2018-06-16T00:29:23.156Z,36.23
2018-06-16T00:31:51.417Z,26.07
2018-06-16T00:34:19.666Z,27.73
2018-06-16T00:36:47.924Z,30.07
2018-06-16T00:39:16.272Z,28.43
2018-06-16T00:41:44.549Z,33.03
2018-06-16T00:44:12.820Z,25.60
2018-06-16T00:46:41.059Z,32.40
2018-06-16T00:49:09.565Z,28.20
2018-06-16T00:51:37.829Z,28.20
2018-06-16T00:54:06.093Z,27.40
2018-06-16T00:56:34.308Z,27.17
2018-06-16T00:59:02.575Z,29.20
2018-06-16T01:01:30.813Z,33.87
2018-06-16T01:03:59.091Z,25.83
2018-06-16T01:06:27.344Z,34.00
2018-06-16T01:08:55.612Z,39.00
2018-06-16T01:11:23.909Z,33.43
2018-06-16T01:13:52.217Z,31.53
2018-06-16T01:16:20.580Z,33.60
2018-06-16T01:18:48.814Z,37.53
2018-06-16T01:21:17.048Z,33.43
2018-06-16T01:23:45.315Z,34.47
2018-06-16T01:26:13.586Z,38.20
2018-06-16T01:28:41.837Z,30.73
2018-06-16T01:31:10.139Z,34.43
2018-06-16T01:33:38.403Z,38.77
2018-06-16T01:36:06.664Z,35.87
2018-06-16T01:38:34.898Z,50.13
2018-06-16T01:41:03.152Z,43.77
2018-06-16T01:43:31.400Z,36.67
2018-06-16T01:45:59.664Z,45.67
2018-06-16T01:48:27.912Z,39.83
2018-06-16T01:50:56.203Z,35.63
2018-06-16T01:53:24.416Z,40.63
2018-06-16T01:55:52.698Z,41.17
2018-06-16T01:58:20.964Z,44.50
2018-06-16T02:00:49.237Z,41.47
2018-06-16T02:03:17.515Z,43.07
2018-06-16T02:05:45.775Z,46.33
2018-06-16T02:08:14.045Z,46.63
2018-06-16T02:10:42.304Z,44.17
2018-06-16T02:13:10.572Z,44.60
2018-06-16T02:15:38.865Z,44.00
2018-06-16T02:18:07.140Z,46.80
2018-06-16T02:20:35.388Z,50.50
2018-06-16T02:23:03.633Z,42.10
2018-06-16T02:25:32.084Z,43.33
2018-06-16T02:28:00.313Z,46.80
2018-06-16T02:30:28.768Z,40.80
2018-06-16T02:32:57.011Z,50.53
2018-06-16T02:35:25.306Z,47.37
2018-06-16T02:37:53.571Z,40.13
2018-06-16T02:40:21.804Z,39.90
2018-06-16T02:42:50.248Z,39.03
2018-06-16T02:45:18.475Z,32.80
2018-06-16T02:47:46.730Z,42.80
2018-06-16T02:50:15.039Z,43.87
2018-06-16T02:52:43.243Z,47.10
2018-06-16T02:55:11.533Z,41.40
2018-06-16T02:57:39.768Z,40.20
2018-06-16T03:00:08.128Z,41.30
2018-06-16T03:02:36.371Z,44.50
2018-06-16T03:05:04.608Z,43.73
2018-06-16T03:07:32.866Z,43.40
2018-06-16T03:10:01.137Z,48.17
2018-06-16T03:12:29.414Z,35.27
2018-06-16T03:14:57.667Z,37.73
2018-06-16T03:17:25.964Z,44.10
2018-06-16T03:19:54.332Z,45.80
2018-06-16T03:22:22.583Z,49.93
2018-06-16T03:24:50.803Z,42.83
2018-06-16T03:27:19.068Z,38.63
2018-06-16T03:29:47.408Z,42.00
2018-06-16T03:32:16.538Z,41.43
2018-06-16T03:34:45.670Z,44.70
2018-06-16T03:37:14.136Z,42.30
2018-06-16T03:39:42.399Z,44.63
2018-06-16T03:42:10.657Z,42.83
2018-06-16T03:44:38.931Z,47.30
2018-06-16T03:47:07.179Z,50.47
2018-06-16T03:49:35.442Z,36.70
2018-06-16T03:52:03.731Z,40.97
2018-06-16T03:54:31.960Z,44.70
2018-06-16T03:56:59.982Z,39.37
2018-06-16T03:59:28.076Z,42.47
2018-06-16T04:01:56.409Z,40.77
2018-06-16T04:04:24.626Z,45.40
2018-06-16T04:06:52.924Z,38.33
2018-06-16T04:09:21.189Z,45.07
2018-06-16T04:11:49.478Z,34.60
2018-06-16T04:14:17.460Z,36.93
2018-06-16T04:16:45.752Z,37.67
2018-06-16T04:19:14.096Z,42.13
2018-06-16T04:21:42.384Z,34.90
2018-06-16T04:24:10.671Z,36.60
2018-06-16T04:26:39.132Z,32.90
2018-06-16T04:29:07.581Z,39.77
2018-06-16T04:31:35.836Z,31.80
2018-06-16T04:34:04.169Z,40.20
2018-06-16T04:36:32.444Z,42.60
2018-06-16T04:39:00.700Z,34.47
2018-06-16T04:41:28.972Z,37.47
2018-06-16T04:43:57.266Z,34.80
2018-06-16T04:46:25.533Z,37.60
2018-06-16T04:48:53.928Z,40.17
2018-06-16T04:51:22.200Z,35.80
2018-06-16T04:53:50.464Z,39.83
2018-06-16T04:56:18.736Z,35.33
2018-06-16T04:58:47.103Z,33.70
2018-06-16T05:01:15.396Z,43.50
2018-06-16T05:03:43.661Z,45.93
2018-06-16T05:06:11.978Z,32.83
2018-06-16T05:08:40.294Z,37.13
2018-06-16T05:11:08.532Z,36.50
2018-06-16T05:13:37.010Z,37.30
2018-06-16T05:16:05.351Z,35.10
2018-06-16T05:18:33.629Z,34.03
2018-06-16T05:21:01.960Z,36.47
2018-06-16T05:23:30.240Z,39.17
2018-06-16T05:25:58.516Z,52.17
2018-06-16T05:28:26.783Z,39.47
2018-06-16T05:30:55.090Z,47.73
2018-06-16T05:33:23.372Z,44.50
2018-06-16T05:35:51.660Z,33.90
2018-06-16T05:38:26.433Z,38.63
2018-06-16T05:40:54.711Z,36.27
2018-06-16T05:43:22.984Z,46.57
2018-06-16T05:45:51.414Z,38.70
2018-06-16T05:48:26.184Z,44.37
2018-06-16T05:50:54.910Z,50.83
2018-06-16T05:53:24.597Z,42.70
2018-06-16T05:55:52.860Z,48.47
2018-06-16T05:58:20.851Z,45.83
2018-06-16T06:00:49.151Z,45.47
2018-06-16T06:03:17.427Z,43.27
2018-06-16T06:05:46.584Z,40.07
2018-06-16T06:08:14.656Z,41.20
2018-06-16T06:10:42.945Z,49.60
2018-06-16T06:13:11.235Z,45.03
2018-06-16T06:15:39.541Z,35.70
2018-06-16T06:18:07.815Z,45.25
2018-06-16T06:20:39.086Z,45.73
2018-06-16T06:23:08.142Z,41.43
2018-06-16T06:25:36.849Z,44.57
2018-06-16T06:28:05.437Z,40.20
2018-06-16T06:30:34.039Z,44.43
2018-06-16T06:33:02.386Z,37.30
2018-06-16T06:35:31.084Z,42.07
2018-06-16T06:37:59.527Z,43.00
2018-06-16T06:40:29.094Z,38.90
2018-06-16T06:42:57.898Z,43.40
2018-06-16T06:45:26.315Z,41.93
2018-06-16T06:47:54.813Z,45.60
2018-06-16T06:50:23.526Z,52.90
2018-06-16T06:52:52.188Z,36.07
2018-06-16T06:55:20.534Z,52.20
2018-06-16T06:57:48.858Z,46.37
2018-06-16T07:00:18.178Z,48.03
2018-06-16T07:02:46.681Z,50.07
2018-06-16T07:05:15.337Z,49.90
2018-06-16T07:07:44.551Z,46.53
2018-06-16T07:10:12.921Z,42.57
2018-06-16T07:12:41.817Z,46.33
2018-06-16T07:15:10.440Z,43.53
2018-06-16T07:17:39.303Z,42.37
2018-06-16T07:20:07.648Z,49.30
2018-06-16T07:22:36.800Z,45.43
2018-06-16T07:25:05.429Z,50.70
2018-06-16T07:27:34.135Z,46.47
2018-06-16T07:30:02.818Z,55.93
2018-06-16T07:32:31.548Z,43.63
2018-06-16T07:35:00.456Z,39.70
2018-06-16T07:37:29.250Z,48.57
2018-06-16T07:39:57.701Z,49.10
2018-06-16T07:42:26.791Z,44.17
2018-06-16T07:44:55.322Z,32.50
2018-06-16T07:47:23.600Z,27.60
2018-06-16T07:49:51.864Z,34.20
2018-06-16T07:52:20.166Z,39.97
2018-06-16T07:54:48.443Z,37.47
2018-06-16T07:57:16.692Z,46.80
2018-06-16T07:59:44.943Z,44.73
2018-06-16T08:02:14.220Z,42.67
2018-06-16T08:04:42.842Z,40.53
2018-06-16T08:07:12.059Z,34.50
2018-06-16T08:09:42.126Z,37.20
2018-06-16T08:12:10.404Z,41.30
2018-06-16T08:14:38.761Z,41.87
2018-06-16T08:17:07.863Z,41.17
2018-06-16T08:19:36.252Z,37.03
2018-06-16T08:22:04.578Z,38.23
2018-06-16T08:24:32.857Z,37.60
2018-06-16T08:27:01.132Z,32.03
2018-06-16T08:29:29.856Z,29.00
2018-06-16T08:31:58.179Z,29.53
2018-06-16T08:34:26.462Z,25.03
2018-06-16T08:36:54.712Z,25.90
2018-06-16T08:39:22.948Z,22.83
2018-06-16T08:41:51.240Z,26.20
2018-06-16T08:44:19.523Z,18.80
2018-06-16T08:46:47.761Z,28.30
2018-06-16T08:49:16.071Z,24.17
2018-06-16T08:51:44.320Z,29.20
2018-06-16T08:54:12.591Z,31.73
2018-06-16T08:56:40.902Z,22.50
2018-06-16T08:59:09.340Z,26.53
2018-06-16T09:01:37.625Z,22.50
2018-06-16T09:04:06.011Z,28.90
2018-06-16T09:06:34.302Z,23.20
2018-06-16T09:09:02.723Z,22.33
2018-06-16T09:11:31.076Z,20.67
2018-06-16T09:13:59.356Z,25.43
2018-06-16T09:16:27.633Z,26.30
2018-06-16T09:18:56.027Z,25.97
2018-06-16T09:21:24.760Z,22.17
2018-06-16T09:23:53.024Z,24.53
2018-06-16T09:26:21.297Z,23.23
2018-06-16T09:28:49.579Z,25.37
2018-06-16T09:31:17.820Z,24.00
2018-06-16T09:33:46.071Z,24.10
2018-06-16T09:36:14.442Z,26.67
2018-06-16T09:38:42.650Z,23.70
2018-06-16T09:41:10.904Z,28.00
2018-06-16T09:43:39.318Z,34.90
2018-06-16T09:46:07.604Z,20.27
2018-06-16T09:48:35.869Z,31.87
2018-06-16T09:51:04.215Z,27.37
2018-06-16T09:53:32.491Z,28.10
2018-06-16T09:56:00.810Z,21.50
2018-06-16T09:58:29.092Z,33.43
2018-06-16T10:00:57.392Z,25.10
2018-06-16T10:03:25.630Z,18.47
2018-06-16T10:05:53.917Z,28.43
2018-06-16T10:08:22.169Z,24.83
2018-06-16T10:10:50.889Z,23.27
2018-06-16T10:13:19.184Z,25.93
2018-06-16T10:15:47.427Z,22.03
2018-06-16T10:18:15.711Z,26.23
2018-06-16T10:20:44.091Z,27.90
2018-06-16T10:23:12.687Z,23.07
2018-06-16T10:25:41.000Z,20.37
2018-06-16T10:28:09.359Z,22.70
2018-06-16T10:30:37.635Z,18.43
2018-06-16T10:33:06.100Z,26.73
2018-06-16T10:35:34.391Z,21.03
2018-06-16T10:38:02.679Z,25.40
2018-06-16T10:40:30.974Z,22.90
2018-06-16T10:42:59.200Z,24.70
2018-06-16T10:45:27.511Z,15.17
2018-06-16T10:47:55.775Z,25.90
2018-06-16T10:50:24.080Z,20.20
2018-06-16T10:52:52.319Z,13.87
2018-06-16T10:55:20.633Z,17.17
2018-06-16T10:57:48.943Z,9.97
2018-06-16T11:00:17.300Z,24.63
2018-06-16T11:02:45.658Z,18.20
2018-06-16T11:05:13.927Z,23.37
2018-06-16T11:07:42.298Z,13.33
2018-06-16T11:10:10.720Z,11.77
2018-06-16T11:12:38.995Z,13.30
2018-06-16T11:15:07.380Z,11.77
2018-06-16T11:17:35.690Z,17.30
2018-06-16T11:20:03.959Z,11.30
2018-06-16T11:22:32.270Z,14.13
2018-06-16T11:25:00.620Z,15.40
2018-06-16T11:27:29.932Z,10.40
2018-06-16T11:29:58.251Z,13.60
2018-06-16T11:32:27.549Z,14.00
2018-06-16T11:34:55.824Z,13.67
2018-06-16T11:37:23.823Z,10.67
2018-06-16T11:39:52.127Z,14.17
2018-06-16T11:42:20.416Z,18.57
2018-06-16T11:44:48.732Z,17.77
2018-06-16T11:47:17.028Z,11.57
2018-06-16T11:49:45.317Z,14.80
2018-06-16T11:52:13.631Z,22.90
2018-06-16T11:54:41.892Z,17.67
2018-06-16T11:57:10.201Z,18.77
2018-06-16T11:59:38.437Z,12.40
2018-06-16T12:02:06.738Z,16.43
2018-06-16T12:04:35.015Z,11.10
2018-06-16T12:07:03.853Z,10.73
2018-06-16T12:09:32.357Z,14.23
2018-06-16T12:12:01.044Z,8.90
2018-06-16T12:14:29.819Z,14.60
2018-06-16T12:16:58.336Z,11.50
2018-06-16T12:19:26.662Z,11.27
2018-06-16T12:21:55.263Z,10.93
2018-06-16T12:24:25.501Z,13.07
2018-06-16T12:26:54.102Z,9.03
2018-06-16T12:29:22.676Z,16.63
2018-06-16T12:31:51.299Z,10.13
2018-06-16T12:34:19.601Z,13.60
2018-06-16T12:36:47.987Z,13.07
2018-06-16T12:39:16.532Z,8.40
2018-06-16T12:41:45.243Z,12.43
2018-06-16T12:44:13.999Z,7.10
2018-06-16T12:46:42.992Z,8.90
2018-06-16T12:49:11.799Z,10.30
2018-06-16T12:51:40.606Z,10.00
2018-06-16T12:54:08.609Z,9.43
2018-06-16T12:56:37.404Z,9.60
2018-06-16T12:59:06.230Z,11.67
2018-06-16T13:01:34.782Z,9.23
2018-06-16T13:04:03.596Z,11.73
2018-06-16T13:06:32.489Z,6.50
2018-06-16T13:09:01.051Z,12.60
2018-06-16T13:11:29.529Z,8.53
2018-06-16T13:13:58.485Z,12.50
2018-06-16T13:16:27.478Z,9.03
2018-06-16T13:18:56.119Z,10.57
2018-06-16T13:21:24.781Z,8.37
2018-06-16T13:23:53.962Z,8.80
2018-06-16T13:26:22.241Z,9.40
2018-06-16T13:28:50.503Z,6.40
2018-06-16T13:31:18.797Z,8.80
2018-06-16T13:33:47.036Z,9.43
2018-06-16T13:36:15.456Z,14.27
2018-06-16T13:38:45.064Z,12.47
2018-06-16T13:41:13.320Z,11.40
2018-06-16T13:43:41.625Z,16.70
2018-06-16T13:46:09.876Z,8.93
2018-06-16T13:48:37.889Z,12.10
2018-06-16T13:51:06.279Z,21.00
2018-06-16T13:53:34.574Z,16.30
2018-06-16T13:56:03.856Z,10.03
2018-06-16T13:58:32.104Z,13.03
2018-06-16T14:01:00.509Z,14.10
2018-06-16T14:03:28.800Z,10.77
2018-06-16T14:05:57.100Z,9.77
2018-06-16T14:08:25.572Z,12.43
2018-06-16T14:10:53.864Z,8.47
2018-06-16T14:13:22.158Z,8.33
2018-06-16T14:15:50.462Z,11.63
2018-06-16T14:18:18.916Z,6.47
2018-06-16T14:20:47.165Z,6.60
2018-06-16T14:23:15.427Z,8.63
2018-06-16T14:25:43.750Z,9.47
2018-06-16T14:28:11.972Z,7.70
2018-06-16T14:30:40.229Z,13.43
2018-06-16T14:33:08.506Z,13.80
2018-06-16T14:35:36.817Z,9.70
2018-06-16T14:38:05.118Z,11.03
2018-06-16T14:40:33.476Z,8.40
2018-06-16T14:43:01.807Z,9.87
2018-06-16T14:45:30.080Z,16.43
2018-06-16T14:47:58.372Z,7.07
2018-06-16T14:50:26.657Z,8.03
2018-06-16T14:52:54.888Z,9.77
2018-06-16T14:55:23.132Z,10.40
2018-06-16T14:57:51.416Z,19.30
2018-06-16T15:00:19.755Z,9.63
2018-06-16T15:02:48.019Z,7.43
2018-06-16T15:05:16.285Z,9.87
2018-06-16T15:07:44.579Z,13.33
2018-06-16T15:10:12.913Z,7.27
2018-06-16T15:12:41.448Z,7.73
2018-06-16T15:15:09.705Z,8.77
2018-06-16T15:17:38.005Z,6.80
2018-06-16T15:20:06.312Z,10.67
2018-06-16T15:22:34.720Z,9.43
2018-06-16T15:25:03.226Z,14.70
2018-06-16T15:27:31.656Z,11.60
2018-06-16T15:30:00.308Z,9.83
2018-06-16T15:32:28.891Z,12.47
2018-06-16T15:34:57.172Z,9.67
2018-06-16T15:37:25.471Z,8.23
2018-06-16T15:39:54.148Z,11.77
2018-06-16T15:42:22.491Z,9.17
2018-06-16T15:44:50.897Z,9.37
2018-06-16T15:47:20.205Z,15.10
2018-06-16T15:49:49.264Z,9.07
2018-06-16T15:52:19.080Z,12.00
2018-06-16T15:54:47.873Z,12.50
2018-06-16T15:57:16.904Z,11.00
2018-06-16T15:59:46.016Z,14.37
2018-06-16T16:02:15.297Z,20.70
2018-06-16T16:04:44.664Z,13.70
2018-06-16T16:07:13.985Z,16.80
2018-06-16T16:09:43.202Z,15.63
2018-06-16T16:12:11.949Z,15.90
2018-06-16T16:14:41.018Z,20.67
2018-06-16T16:17:10.843Z,23.37
2018-06-16T16:19:40.455Z,24.40
2018-06-16T16:22:09.776Z,26.77
2018-06-16T16:24:38.945Z,20.97
2018-06-16T16:27:07.961Z,21.03
2018-06-16T16:29:36.611Z,20.93
2018-06-16T16:32:06.161Z,23.87
2018-06-16T16:34:35.023Z,16.43
2018-06-16T16:37:04.802Z,19.40
2018-06-16T16:39:33.930Z,14.13
2018-06-16T16:42:02.980Z,15.13
2018-06-16T16:44:31.985Z,18.57
2018-06-16T16:47:00.789Z,15.30
2018-06-16T16:49:30.059Z,26.27
2018-06-16T16:51:58.996Z,20.03
2018-06-16T16:54:27.927Z,17.93
2018-06-16T16:56:56.919Z,18.80
2018-06-16T16:59:25.980Z,27.33
2018-06-16T17:01:55.055Z,29.77
2018-06-16T17:04:24.128Z,23.10
2018-06-16T17:06:53.176Z,27.53
2018-06-16T17:09:22.058Z,34.00
2018-06-16T17:11:50.633Z,22.33
2018-06-16T17:14:18.997Z,25.80
2018-06-16T17:16:47.268Z,27.67
2018-06-16T17:19:16.630Z,19.80
2018-06-16T17:21:45.191Z,31.93
2018-06-16T17:24:13.755Z,29.10
2018-06-16T17:26:42.332Z,22.17
2018-06-16T17:29:10.928Z,21.10
2018-06-16T17:31:39.411Z,19.97
2018-06-16T17:34:08.390Z,32.30
2018-06-16T17:36:36.382Z,31.57
2018-06-16T17:39:07.240Z,29.47
2018-06-16T17:41:36.350Z,16.77
2018-06-16T17:44:05.562Z,15.77
2018-06-16T17:46:34.332Z,16.93
2018-06-16T17:49:02.889Z,31.10
2018-06-16T17:51:31.547Z,18.17
2018-06-16T17:54:00.351Z,17.30
2018-06-16T17:56:29.027Z,18.77
2018-06-16T17:58:57.437Z,19.70
2018-06-16T18:01:25.729Z,18.57
2018-06-16T18:03:54.032Z,19.57
2018-06-16T18:06:22.346Z,22.30
2018-06-16T18:08:50.923Z,15.47
2018-06-16T18:11:19.421Z,17.77
2018-06-16T18:13:47.980Z,16.17
2018-06-16T18:16:16.781Z,14.73
2018-06-16T18:18:45.479Z,15.97
2018-06-16T18:21:14.090Z,36.80
2018-06-16T18:23:42.335Z,18.10
2018-06-16T18:26:11.585Z,16.30
2018-06-16T18:28:39.939Z,20.83
2018-06-16T18:31:08.673Z,22.03
2018-06-16T18:33:37.078Z,19.17
2018-06-16T18:36:06.213Z,19.20
2018-06-16T18:38:34.907Z,18.30
2018-06-16T18:41:03.573Z,14.30
2018-06-16T18:43:32.114Z,16.80
2018-06-16T18:46:00.363Z,16.17
2018-06-16T18:48:29.492Z,22.10
2018-06-16T18:50:58.314Z,22.30
2018-06-16T18:53:27.397Z,19.63
2018-06-16T18:55:56.157Z,15.43
2018-06-16T18:58:24.238Z,15.70
2018-06-16T19:00:53.397Z,13.47
2018-06-16T19:03:21.853Z,18.53
2018-06-16T19:05:50.385Z,23.10
2018-06-16T19:08:18.860Z,16.80
2018-06-16T19:10:47.258Z,17.30
2018-06-16T19:13:15.483Z,14.17
2018-06-16T19:15:43.780Z,11.70
2018-06-16T19:18:12.225Z,13.83
2018-06-16T19:20:40.506Z,13.43
2018-06-16T19:23:09.079Z,18.00
2018-06-16T19:25:37.318Z,16.50
2018-06-16T19:28:05.602Z,12.83
2018-06-16T19:30:33.611Z,13.63
2018-06-16T19:33:01.880Z,20.47
2018-06-16T19:35:30.130Z,15.37
2018-06-16T19:37:58.471Z,19.13
2018-06-16T19:40:26.936Z,13.43
2018-06-16T19:42:55.213Z,14.90
2018-06-16T19:45:23.486Z,18.47
2018-06-16T19:47:51.744Z,14.93
2018-06-16T19:50:20.013Z,13.60
2018-06-16T19:52:48.297Z,14.93
2018-06-16T19:55:16.600Z,20.20
2018-06-16T19:57:44.836Z,17.63
2018-06-16T20:00:13.171Z,13.80
2018-06-16T20:02:41.430Z,14.87
2018-06-16T20:05:09.692Z,17.20
2018-06-16T20:07:37.956Z,9.70
2018-06-16T20:10:06.312Z,13.60
2018-06-16T20:12:34.319Z,16.43
2018-06-16T20:15:03.412Z,14.17
2018-06-16T20:17:31.717Z,11.50
2018-06-16T20:20:00.005Z,17.50
2018-06-16T20:22:28.304Z,10.90
2018-06-16T20:24:56.568Z,10.73
2018-06-16T20:27:24.834Z,18.60
2018-06-16T20:29:53.156Z,13.23
2018-06-16T20:32:21.469Z,23.53
2018-06-16T20:34:49.445Z,10.33
2018-06-16T20:37:17.692Z,10.97
2018-06-16T20:39:46.004Z,17.27
2018-06-16T20:42:14.260Z,11.77
2018-06-16T20:44:42.517Z,14.13
2018-06-16T20:47:10.798Z,14.90
2018-06-16T20:49:39.312Z,20.40
2018-06-16T20:52:07.561Z,14.63
2018-06-16T20:54:35.833Z,11.93
2018-06-16T20:57:04.105Z,16.60
2018-06-16T20:59:32.343Z,14.67
2018-06-16T21:02:00.645Z,10.27
2018-06-16T21:04:28.893Z,13.33
2018-06-16T21:06:57.149Z,11.80
2018-06-16T21:09:25.516Z,13.40
2018-06-16T21:11:53.752Z,10.83
2018-06-16T21:14:22.045Z,8.03
2018-06-16T21:16:50.309Z,10.63
2018-06-16T21:19:18.581Z,12.53
2018-06-16T21:21:46.871Z,16.03
2018-06-16T21:24:15.109Z,24.13
2018-06-16T21:26:43.375Z,23.67
2018-06-16T21:29:11.658Z,71.30
2018-06-16T21:31:39.929Z,179.47
2018-06-16T21:34:08.404Z,83.67
2018-06-16T21:36:36.407Z,43.57
2018-06-16T21:39:06.591Z,27.00
2018-06-16T21:41:34.911Z,13.80
2018-06-16T21:44:03.285Z,18.53
2018-06-16T21:46:31.506Z,13.10
2018-06-16T21:48:59.893Z,17.60
2018-06-16T21:51:28.197Z,19.27
2018-06-16T21:53:56.469Z,14.77
2018-06-16T21:56:24.735Z,11.27
2018-06-16T21:58:53.204Z,8.67
2018-06-16T22:01:21.191Z,20.47
2018-06-16T22:03:49.437Z,17.63
2018-06-16T22:06:17.701Z,15.03
2018-06-16T22:08:45.978Z,15.43
2018-06-16T22:11:14.245Z,14.20
2018-06-16T22:13:42.546Z,12.90
2018-06-16T22:16:10.805Z,15.43
2018-06-16T22:18:39.064Z,15.83
2018-06-16T22:21:07.362Z,17.83
2018-06-16T22:23:35.633Z,15.80
2018-06-16T22:26:04.477Z,12.97
2018-06-16T22:28:32.753Z,18.17
2018-06-16T22:31:01.112Z,10.63
2018-06-16T22:33:29.404Z,15.53
2018-06-16T22:35:57.648Z,15.93
2018-06-16T22:38:25.946Z,19.53
2018-06-16T22:40:54.224Z,20.53
2018-06-16T22:43:22.466Z,14.97
2018-06-16T22:45:50.806Z,17.83
2018-06-16T22:48:19.035Z,11.50
2018-06-16T22:50:47.351Z,11.80
2018-06-16T22:53:15.660Z,12.80
2018-06-16T22:55:43.928Z,17.23
2018-06-16T22:58:12.248Z,16.93
2018-06-16T23:00:40.696Z,20.70
2018-06-16T23:03:08.956Z,10.03
2018-06-16T23:05:37.250Z,13.67
2018-06-16T23:08:05.549Z,18.73
2018-06-16T23:10:33.576Z,14.67
2018-06-16T23:13:01.889Z,12.50
2018-06-16T23:15:30.224Z,11.83
2018-06-16T23:17:58.195Z,11.53
2018-06-16T23:20:26.477Z,19.03
2018-06-16T23:22:54.787Z,14.93
2018-06-16T23:25:25.246Z,14.83
2018-06-16T23:27:53.487Z,12.10
2018-06-16T23:30:22.146Z,11.97
2018-06-16T23:32:50.134Z,11.97
2018-06-16T23:35:18.401Z,20.43
2018-06-16T23:37:46.649Z,13.77
2018-06-16T23:40:14.943Z,12.17
2018-06-16T23:42:43.200Z,12.40
2018-06-16T23:45:11.470Z,13.90
2018-06-16T23:47:39.724Z,15.73
2018-06-16T23:50:08.240Z,7.70
2018-06-16T23:52:36.509Z,19.43
2018-06-16T23:55:04.779Z,18.00
2018-06-16T23:57:33.059Z,16.90
